Time;durP1;ratioP1;P1;durP2;ratioP2;P2;SDS_P1;SDS_P2;PMS_P1;PMS_P2;Temp;Humidity;BMP_temperature;BMP_pressure;BME280_temperature;BME280_humidity;BME280_pressure;Samples;Min_cycle;Max_cycle;Signal;HPM_P1;HPM_P2
2023/06/19 00:01:39;;;;;;;;;7.00;7.00;;;;;;;;5024267;28;51084;-58
2023/06/19 00:04:04;;;;;;;;;7.67;7.67;;;;;;;;5032065;28;51166;-58
2023/06/19 00:06:29;;;;;;;;;7.33;7.33;;;;;;;;5025445;28;50967;-58
2023/06/19 00:08:55;;;;;;;;;7.67;7.67;;;;;;;;5032063;28;51890;-58
2023/06/19 00:11:20;;;;;;;;;9.00;8.33;;;;;;;;5024754;28;50846;-58
2023/06/19 00:13:45;;;;;;;;;7.00;6.00;;;;;;;;5024613;28;51073;-58
2023/06/19 00:16:11;;;;;;;;;9.00;9.00;;;;;;;;5022941;28;51303;-58
2023/06/19 00:18:39;;;;;;;;;9.67;9.67;;;;;;;;5013622;28;51718;-59
2023/06/19 00:21:06;;;;;;;;;7.33;7.33;;;;;;;;5025091;28;51010;-56
2023/06/19 00:23:31;;;;;;;;;8.67;7.00;;;;;;;;5023970;28;51094;-57
2023/06/19 00:25:56;;;;;;;;;9.00;9.00;;;;;;;;5016628;28;50906;-57
2023/06/19 00:28:21;;;;;;;;;7.00;7.00;;;;;;;;5023372;28;51307;-58
2023/06/19 00:30:47;;;;;;;;;6.33;6.33;;;;;;;;5019321;28;50871;-59
2023/06/19 00:33:12;;;;;;;;;8.00;7.67;;;;;;;;5028825;28;51131;-60
2023/06/19 00:35:37;;;;;;;;;11.00;10.00;;;;;;;;5014597;28;50927;-58
2023/06/19 00:38:03;;;;;;;;;7.33;7.33;;;;;;;;5030247;28;53089;-58
2023/06/19 00:40:29;;;;;;;;;12.00;10.67;;;;;;;;5029110;28;50985;-58
2023/06/19 00:42:54;;;;;;;;;11.00;11.00;;;;;;;;5026942;28;51198;-58
2023/06/19 00:45:20;;;;;;;;;9.33;8.33;;;;;;;;5013606;28;51137;-58
2023/06/19 00:47:45;;;;;;;;;8.33;8.33;;;;;;;;5028845;28;51796;-58
2023/06/19 00:50:11;;;;;;;;;9.67;9.00;;;;;;;;5032461;28;51121;-58
2023/06/19 00:52:37;;;;;;;;;10.33;10.33;;;;;;;;5026926;28;51104;-58
2023/06/19 00:55:03;;;;;;;;;13.00;12.00;;;;;;;;5030388;28;51103;-56
2023/06/19 00:57:30;;;;;;;;;12.00;11.00;;;;;;;;5027551;28;52617;-58
2023/06/19 00:59:55;;;;;;;;;9.00;9.00;;;;;;;;5018838;28;50955;-57
2023/06/19 01:02:23;;;;;;;;;10.00;8.00;;;;;;;;5027901;28;51064;-58
2023/06/19 01:04:49;;;;;;;;;9.33;9.00;;;;;;;;5030300;28;51183;-58
2023/06/19 01:07:16;;;;;;;;;7.33;7.33;;;;;;;;5025979;28;52000;-58
2023/06/19 01:09:53;;;;;;;;;10.00;9.67;;;;;;;;5030016;28;51199;-58
2023/06/19 01:12:20;;;;;;;;;10.33;8.33;;;;;;;;5026215;28;51116;-58
2023/06/19 01:14:58;;;;;;;;;8.33;8.00;;;;;;;;5030145;28;51077;-57
2023/06/19 01:17:24;;;;;;;;;10.67;10.00;;;;;;;;5025932;28;51193;-58
2023/06/19 01:19:50;;;;;;;;;9.00;9.00;;;;;;;;5027590;28;51199;-58
2023/06/19 01:22:22;;;;;;;;;9.00;8.67;;;;;;;;5025049;28;51237;-57
2023/06/19 01:24:47;;;;;;;;;12.67;12.67;;;;;;;;5031209;28;50838;-58
2023/06/19 01:27:13;;;;;;;;;8.33;8.00;;;;;;;;5022985;28;52073;-58
2023/06/19 01:29:38;;;;;;;;;10.00;9.67;;;;;;;;5026345;28;51152;-58
2023/06/19 01:32:07;;;;;;;;;8.67;8.33;;;;;;;;5029176;28;51241;-58
2023/06/19 01:34:33;;;;;;;;;11.67;10.33;;;;;;;;5026863;28;51100;-57
2023/06/19 01:36:58;;;;;;;;;10.67;9.67;;;;;;;;5029306;28;51934;-58
2023/06/19 01:39:24;;;;;;;;;11.33;11.00;;;;;;;;5027511;28;51086;-57
2023/06/19 01:41:50;;;;;;;;;9.67;9.67;;;;;;;;5031630;28;51302;-57
2023/06/19 01:44:15;;;;;;;;;12.67;12.33;;;;;;;;5030560;28;51332;-57
2023/06/19 01:46:40;;;;;;;;;8.67;8.33;;;;;;;;5026004;28;52757;-57
2023/06/19 01:49:07;;;;;;;;;10.33;10.33;;;;;;;;5021566;28;51193;-58
2023/06/19 01:51:32;;;;;;;;;12.33;11.33;;;;;;;;5034224;28;51072;-58
2023/06/19 01:53:57;;;;;;;;;12.00;11.00;;;;;;;;5019933;28;50998;-58
2023/06/19 01:56:24;;;;;;;;;9.00;9.00;;;;;;;;5031218;28;51992;-58
2023/06/19 01:58:49;;;;;;;;;11.67;11.33;;;;;;;;5017346;28;51064;-58
2023/06/19 02:01:14;;;;;;;;;11.33;10.67;;;;;;;;5033790;28;51325;-58
2023/06/19 02:03:39;;;;;;;;;10.33;10.33;;;;;;;;5034979;28;51069;-57
2023/06/19 02:06:04;;;;;;;;;11.00;10.67;;;;;;;;5034909;28;51992;-58
2023/06/19 02:08:30;;;;;;;;;15.00;13.00;;;;;;;;5033032;28;51164;-58
2023/06/19 02:10:55;;;;;;;;;11.67;10.33;;;;;;;;5033707;28;51149;-58
2023/06/19 02:13:20;;;;;;;;;12.25;11.00;;;;;;;;5028955;28;50957;-57
2023/06/19 02:15:45;;;;;;;;;13.67;12.00;;;;;;;;5027958;28;51825;-57
2023/06/19 02:18:10;;;;;;;;;12.00;12.00;;;;;;;;5019654;28;51118;-58
2023/06/19 02:20:36;;;;;;;;;11.33;10.00;;;;;;;;5024271;28;51368;-57
2023/06/19 02:23:01;;;;;;;;;10.00;10.00;;;;;;;;5031503;28;51010;-58
2023/06/19 02:25:26;;;;;;;;;10.00;10.00;;;;;;;;5024975;28;51975;-57
2023/06/19 02:27:51;;;;;;;;;13.00;12.00;;;;;;;;5029290;28;51275;-57
2023/06/19 02:30:16;;;;;;;;;12.75;12.75;;;;;;;;5022922;28;51237;-58
2023/06/19 02:32:42;;;;;;;;;10.00;10.00;;;;;;;;5024022;28;51274;-57
2023/06/19 02:35:08;;;;;;;;;13.00;12.67;;;;;;;;5020365;28;51866;-56
2023/06/19 02:37:35;;;;;;;;;12.33;11.67;;;;;;;;5031837;28;51108;-58
2023/06/19 02:40:03;;;;;;;;;13.00;12.50;;;;;;;;5030968;28;51222;-56
2023/06/19 02:42:28;;;;;;;;;11.33;10.67;;;;;;;;5029531;28;50951;-58
2023/06/19 02:44:53;;;;;;;;;15.00;13.67;;;;;;;;5014974;28;52035;-58
2023/06/19 02:47:18;;;;;;;;;8.00;8.00;;;;;;;;5016154;28;51108;-57
2023/06/19 02:49:43;;;;;;;;;11.67;11.67;;;;;;;;5019370;28;51132;-57
2023/06/19 02:52:08;;;;;;;;;11.00;11.00;;;;;;;;5031977;28;51087;-56
2023/06/19 02:54:34;;;;;;;;;11.33;11.33;;;;;;;;5034690;28;51876;-58
2023/06/19 02:56:59;;;;;;;;;10.00;10.00;;;;;;;;5026649;28;50921;-57
2023/06/19 02:59:25;;;;;;;;;14.33;13.67;;;;;;;;5021483;28;51088;-56
2023/06/19 03:01:51;;;;;;;;;14.00;13.00;;;;;;;;5026674;28;51369;-58
2023/06/19 03:04:17;;;;;;;;;11.25;11.25;;;;;;;;5025093;28;51447;-59
2023/06/19 03:06:42;;;;;;;;;15.00;13.00;;;;;;;;5019437;28;51187;-58
2023/06/19 03:09:12;;;;;;;;;12.33;12.00;;;;;;;;5024600;28;51085;-58
2023/06/19 03:11:40;;;;;;;;;11.25;11.25;;;;;;;;5033073;28;51043;-58
2023/06/19 03:14:07;;;;;;;;;14.00;13.33;;;;;;;;5024448;28;52604;-59
2023/06/19 03:16:32;;;;;;;;;13.00;11.33;;;;;;;;5028727;28;51106;-58
2023/06/19 03:18:57;;;;;;;;;14.00;13.00;;;;;;;;5031009;28;51101;-58
2023/06/19 03:21:23;;;;;;;;;11.00;11.00;;;;;;;;5022738;28;51089;-58
2023/06/19 03:23:48;;;;;;;;;12.25;12.00;;;;;;;;5030627;28;52057;-57
2023/06/19 03:26:13;;;;;;;;;12.33;12.00;;;;;;;;5025144;28;51573;-59
2023/06/19 03:28:38;;;;;;;;;12.25;11.50;;;;;;;;5022411;28;51173;-57
2023/06/19 03:31:03;;;;;;;;;11.00;11.00;;;;;;;;5030908;28;51960;-58
2023/06/19 03:33:29;;;;;;;;;13.00;12.00;;;;;;;;5025960;28;52435;-57
2023/06/19 03:35:54;;;;;;;;;12.33;11.67;;;;;;;;5022224;28;50925;-58
2023/06/19 03:38:20;;;;;;;;;11.00;10.33;;;;;;;;5028675;28;51006;-56
2023/06/19 03:40:45;;;;;;;;;12.67;11.67;;;;;;;;5032143;28;51343;-58
2023/06/19 03:43:10;;;;;;;;;11.00;10.00;;;;;;;;5023955;28;51865;-60
2023/06/19 03:45:36;;;;;;;;;12.00;12.00;;;;;;;;5024562;28;51039;-57
2023/06/19 03:48:01;;;;;;;;;14.50;14.25;;;;;;;;5030289;28;51184;-59
2023/06/19 03:50:26;;;;;;;;;13.25;11.75;;;;;;;;5021879;28;50920;-57
2023/06/19 03:52:51;;;;;;;;;13.00;10.00;;;;;;;;5013286;28;51072;-58
2023/06/19 03:55:17;;;;;;;;;11.33;10.33;;;;;;;;5020318;28;51068;-58
2023/06/19 03:57:42;;;;;;;;;12.00;11.33;;;;;;;;5022803;28;51211;-58
2023/06/19 04:00:07;;;;;;;;;12.00;12.00;;;;;;;;5025941;28;52704;-58
2023/06/19 04:02:35;;;;;;;;;14.33;13.67;;;;;;;;5024048;28;51624;-59
2023/06/19 04:05:00;;;;;;;;;14.00;12.00;;;;;;;;5023871;28;51112;-58
2023/06/19 04:07:25;;;;;;;;;11.25;11.25;;;;;;;;5022760;28;50943;-58
2023/06/19 04:09:51;;;;;;;;;16.75;16.75;;;;;;;;5030227;28;51031;-58
2023/06/19 04:12:16;;;;;;;;;17.75;16.75;;;;;;;;5022094;28;51882;-58
2023/06/19 04:14:41;;;;;;;;;12.67;12.67;;;;;;;;5029102;28;50878;-58
2023/06/19 04:17:06;;;;;;;;;13.00;12.75;;;;;;;;5027973;28;51118;-57
2023/06/19 04:19:31;;;;;;;;;14.33;14.33;;;;;;;;5018827;28;51120;-57
2023/06/19 04:21:56;;;;;;;;;14.00;12.00;;;;;;;;5023974;28;51016;-57
2023/06/19 04:24:22;;;;;;;;;13.00;12.67;;;;;;;;5020636;28;51249;-57
2023/06/19 04:26:47;;;;;;;;;13.00;13.00;;;;;;;;5022624;28;51086;-58
2023/06/19 04:29:16;;;;;;;;;12.67;12.33;;;;;;;;5023913;28;50891;-57
2023/06/19 04:31:41;;;;;;;;;10.00;10.00;;;;;;;;5025248;28;51023;-57
2023/06/19 04:34:07;;;;;;;;;12.00;11.00;;;;;;;;5030810;28;51232;-57
2023/06/19 04:36:32;;;;;;;;;15.67;15.00;;;;;;;;5031422;28;50956;-58
2023/06/19 04:38:58;;;;;;;;;13.67;12.33;;;;;;;;5033418;28;51022;-58
2023/06/19 04:41:23;;;;;;;;;14.33;13.33;;;;;;;;5029410;28;52688;-57
2023/06/19 04:43:48;;;;;;;;;15.33;14.67;;;;;;;;5019779;28;51994;-58
2023/06/19 04:46:13;;;;;;;;;13.00;12.33;;;;;;;;5025790;28;51149;-57
2023/06/19 04:48:40;;;;;;;;;12.33;12.00;;;;;;;;5020231;28;51075;-56
2023/06/19 04:51:05;;;;;;;;;15.00;12.75;;;;;;;;5023730;28;53074;-57
2023/06/19 04:53:30;;;;;;;;;13.33;13.33;;;;;;;;5022787;28;51726;-58
2023/06/19 04:55:55;;;;;;;;;14.00;13.00;;;;;;;;5025407;28;51187;-57
2023/06/19 04:58:21;;;;;;;;;12.67;12.67;;;;;;;;5024981;28;51040;-57
2023/06/19 05:00:51;;;;;;;;;14.25;13.00;;;;;;;;5021915;28;54250;-58
2023/06/19 05:03:16;;;;;;;;;15.33;14.33;;;;;;;;5027581;28;51112;-57
2023/06/19 05:05:42;;;;;;;;;15.00;14.00;;;;;;;;5026428;28;51231;-57
2023/06/19 05:08:07;;;;;;;;;11.00;10.33;;;;;;;;5015818;28;50917;-57
2023/06/19 05:10:32;;;;;;;;;16.00;14.33;;;;;;;;5026999;28;51152;-57
2023/06/19 05:12:57;;;;;;;;;16.00;15.33;;;;;;;;5027703;28;51131;-57
2023/06/19 05:15:22;;;;;;;;;13.33;13.00;;;;;;;;5014001;28;51159;-57
2023/06/19 05:17:47;;;;;;;;;11.67;11.33;;;;;;;;5013814;28;51181;-59
2023/06/19 05:20:13;;;;;;;;;15.67;14.67;;;;;;;;5018208;28;51853;-57
2023/06/19 05:22:38;;;;;;;;;16.67;15.67;;;;;;;;5028984;28;51211;-58
2023/06/19 05:25:04;;;;;;;;;14.67;13.00;;;;;;;;5027188;28;51072;-57
2023/06/19 05:27:29;;;;;;;;;24.00;22.25;;;;;;;;5031821;28;51078;-57
2023/06/19 05:29:54;;;;;;;;;17.67;16.00;;;;;;;;5026815;28;51121;-57
2023/06/19 05:32:19;;;;;;;;;16.00;16.00;;;;;;;;5017497;28;51077;-58
2023/06/19 05:34:44;;;;;;;;;14.67;14.67;;;;;;;;5008900;28;51124;-58
2023/06/19 05:37:10;;;;;;;;;12.33;12.33;;;;;;;;5011680;28;51074;-58
2023/06/19 05:39:35;;;;;;;;;18.33;16.00;;;;;;;;5015744;28;51952;-58
2023/06/19 05:42:00;;;;;;;;;13.33;13.33;;;;;;;;5017246;28;51074;-58
2023/06/19 05:44:25;;;;;;;;;16.33;15.33;;;;;;;;5028810;28;51107;-58
2023/06/19 05:46:50;;;;;;;;;16.33;14.67;;;;;;;;5012188;28;50882;-58
2023/06/19 05:49:16;;;;;;;;;14.00;14.00;;;;;;;;5023482;28;51523;-59
2023/06/19 05:51:41;;;;;;;;;17.67;17.00;;;;;;;;5018084;28;51085;-58
2023/06/19 05:54:06;;;;;;;;;12.33;12.00;;;;;;;;5011770;28;50934;-58
2023/06/19 05:56:36;;;;;;;;;14.00;14.00;;;;;;;;5011778;28;51323;-58
2023/06/19 05:59:01;;;;;;;;;10.00;10.00;;;;;;;;5021117;28;53077;-57
2023/06/19 06:01:28;;;;;;;;;13.33;11.33;;;;;;;;5030155;28;51058;-58
2023/06/19 06:03:53;;;;;;;;;14.67;14.67;;;;;;;;5018258;28;51995;-59
2023/06/19 06:06:19;;;;;;;;;17.00;15.33;;;;;;;;5023715;28;51228;-58
2023/06/19 06:08:44;;;;;;;;;15.00;14.00;;;;;;;;5022208;28;52024;-58
2023/06/19 06:11:09;;;;;;;;;12.67;12.67;;;;;;;;5015000;28;51058;-58
2023/06/19 06:13:35;;;;;;;;;13.67;12.67;;;;;;;;5027015;28;51213;-58
2023/06/19 06:16:00;;;;;;;;;14.00;12.33;;;;;;;;5028488;28;50881;-58
2023/06/19 06:18:26;;;;;;;;;14.67;14.67;;;;;;;;5018310;28;52649;-59
2023/06/19 06:20:51;;;;;;;;;19.33;17.33;;;;;;;;5026200;28;51348;-59
2023/06/19 06:23:16;;;;;;;;;18.33;16.33;;;;;;;;5011301;28;51277;-58
2023/06/19 06:25:41;;;;;;;;;18.00;17.00;;;;;;;;5013058;28;51299;-58
2023/06/19 06:28:07;;;;;;;;;18.33;17.33;;;;;;;;5031302;28;51261;-58
2023/06/19 06:30:32;;;;;;;;;16.67;15.00;;;;;;;;5029888;28;51185;-58
2023/06/19 06:32:58;;;;;;;;;18.75;18.25;;;;;;;;5026040;28;51218;-58
2023/06/19 06:35:23;;;;;;;;;21.33;20.00;;;;;;;;5023055;28;51029;-58
2023/06/19 06:37:49;;;;;;;;;20.25;18.50;;;;;;;;5028498;28;52548;-59
2023/06/19 06:40:15;;;;;;;;;15.75;15.75;;;;;;;;5030289;28;51198;-58
2023/06/19 06:42:40;;;;;;;;;24.25;22.75;;;;;;;;5030097;28;51908;-57
2023/06/19 06:45:06;;;;;;;;;18.25;18.25;;;;;;;;5022727;28;51384;-57
2023/06/19 06:47:31;;;;;;;;;18.75;18.75;;;;;;;;5016320;28;51385;-58
2023/06/19 06:49:56;;;;;;;;;19.00;19.00;;;;;;;;5022844;28;51135;-58
2023/06/19 06:52:22;;;;;;;;;22.25;22.25;;;;;;;;5027465;28;51176;-58
2023/06/19 06:54:47;;;;;;;;;18.50;18.50;;;;;;;;5027314;28;51219;-57
2023/06/19 06:57:12;;;;;;;;;21.75;21.50;;;;;;;;5022984;28;51810;-57
2023/06/19 06:59:37;;;;;;;;;20.33;20.00;;;;;;;;5015494;28;51009;-57
2023/06/19 07:02:02;;;;;;;;;20.75;20.75;;;;;;;;5031008;28;51179;-56
2023/06/19 07:04:28;;;;;;;;;24.00;23.50;;;;;;;;5022061;28;51272;-58
2023/06/19 07:06:53;;;;;;;;;25.25;23.50;;;;;;;;5014699;28;50828;-56
2023/06/19 07:09:18;;;;;;;;;29.75;29.50;;;;;;;;5019513;28;51171;-56
2023/06/19 07:11:44;;;;;;;;;25.00;24.50;;;;;;;;5026854;28;51456;-58
2023/06/19 07:14:09;;;;;;;;;23.00;23.00;;;;;;;;5025880;28;51180;-58
2023/06/19 07:16:34;;;;;;;;;24.75;24.00;;;;;;;;5020828;28;50959;-57
2023/06/19 07:18:59;;;;;;;;;26.75;25.50;;;;;;;;5015228;28;51010;-58
2023/06/19 07:21:27;;;;;;;;;27.00;26.25;;;;;;;;5029369;28;51237;-62
2023/06/19 07:23:52;;;;;;;;;24.75;24.25;;;;;;;;5033904;28;51109;-57
2023/06/19 07:26:17;;;;;;;;;28.25;27.75;;;;;;;;5024607;28;52546;-56
2023/06/19 07:28:43;;;;;;;;;24.75;24.00;;;;;;;;5014099;28;51063;-58
2023/06/19 07:31:08;;;;;;;;;23.50;23.00;;;;;;;;5024172;28;51291;-58
2023/06/19 07:33:34;;;;;;;;;25.33;25.00;;;;;;;;5036624;28;51210;-58
2023/06/19 07:36:02;;;;;;;;;25.00;24.25;;;;;;;;5031466;28;51999;-58
2023/06/19 07:38:27;;;;;;;;;27.00;26.00;;;;;;;;5032871;28;50788;-56
2023/06/19 07:40:52;;;;;;;;;25.25;23.75;;;;;;;;5032257;28;51252;-57
2023/06/19 07:43:17;;;;;;;;;25.25;25.25;;;;;;;;5014144;28;51307;-57
2023/06/19 07:45:42;;;;;;;;;24.75;24.00;;;;;;;;5026801;28;51012;-58
2023/06/19 07:48:08;;;;;;;;;26.50;24.50;;;;;;;;5026840;28;51044;-58
2023/06/19 07:50:33;;;;;;;;;27.25;24.75;;;;;;;;5020579;28;51080;-57
2023/06/19 07:52:58;;;;;;;;;23.25;22.25;;;;;;;;5025137;28;51465;-57
2023/06/19 07:55:23;;;;;;;;;29.00;27.25;;;;;;;;5028403;28;51792;-57
2023/06/19 07:57:48;;;;;;;;;23.50;22.50;;;;;;;;5026780;28;50938;-57
2023/06/19 08:00:14;;;;;;;;;21.75;21.75;;;;;;;;5018238;28;51103;-56
2023/06/19 08:02:40;;;;;;;;;26.50;26.25;;;;;;;;5015053;28;51139;-57
2023/06/19 08:05:06;;;;;;;;;23.67;22.67;;;;;;;;5025078;28;51706;-56
2023/06/19 08:07:32;;;;;;;;;18.50;18.25;;;;;;;;5038776;28;51538;-56
2023/06/19 08:09:57;;;;;;;;;24.00;22.75;;;;;;;;5033604;28;52085;-56
2023/06/19 08:12:22;;;;;;;;;19.00;19.00;;;;;;;;5033872;28;50994;-56
2023/06/19 08:14:47;;;;;;;;;23.75;22.00;;;;;;;;5018825;28;51870;-55
2023/06/19 08:17:13;;;;;;;;;22.67;22.67;;;;;;;;5043072;28;51127;-56
2023/06/19 08:19:39;;;;;;;;;20.50;20.50;;;;;;;;5030594;28;51041;-57
2023/06/19 08:22:04;;;;;;;;;21.75;21.50;;;;;;;;5030151;28;51297;-56
2023/06/19 08:24:29;;;;;;;;;19.67;19.67;;;;;;;;5026385;28;52115;-57
2023/06/19 08:26:55;;;;;;;;;20.33;18.67;;;;;;;;5024804;28;51076;-56
2023/06/19 08:29:20;;;;;;;;;27.00;25.50;;;;;;;;5037317;28;50931;-55
2023/06/19 08:31:45;;;;;;;;;20.33;19.33;;;;;;;;5027568;28;51057;-55
2023/06/19 08:34:11;;;;;;;;;19.33;19.00;;;;;;;;5029698;28;51847;-56
2023/06/19 08:36:36;;;;;;;;;18.75;18.25;;;;;;;;5041122;28;51052;-57
2023/06/19 08:39:02;;;;;;;;;18.75;18.25;;;;;;;;5027712;28;51263;-57
2023/06/19 08:41:28;;;;;;;;;20.00;19.33;;;;;;;;5026790;28;51180;-57
2023/06/19 08:43:53;;;;;;;;;19.00;17.00;;;;;;;;5027736;28;51039;-57
2023/06/19 08:46:18;;;;;;;;;18.00;18.00;;;;;;;;5026891;28;51060;-57
2023/06/19 08:48:44;;;;;;;;;16.67;16.67;;;;;;;;5026867;28;51197;-57
2023/06/19 08:51:10;;;;;;;;;19.00;17.33;;;;;;;;5027269;28;51239;-57
2023/06/19 08:53:36;;;;;;;;;15.00;15.00;;;;;;;;5024334;28;52101;-55
2023/06/19 08:56:02;;;;;;;;;17.00;16.33;;;;;;;;5033652;28;51328;-55
2023/06/19 08:58:27;;;;;;;;;12.33;11.67;;;;;;;;5041647;28;51359;-55
2023/06/19 09:00:53;;;;;;;;;16.33;14.00;;;;;;;;5029988;28;51000;-55
2023/06/19 09:03:21;;;;;;;;;14.00;13.67;;;;;;;;5018631;28;50944;-56
2023/06/19 09:05:49;;;;;;;;;14.00;13.67;;;;;;;;5042650;28;51206;-56
2023/06/19 09:08:17;;;;;;;;;13.00;13.00;;;;;;;;5032657;28;51309;-54
2023/06/19 09:10:43;;;;;;;;;16.00;16.00;;;;;;;;5025900;28;51163;-55
2023/06/19 09:13:09;;;;;;;;;15.67;15.33;;;;;;;;5027859;28;51929;-53
2023/06/19 09:15:35;;;;;;;;;16.67;16.67;;;;;;;;5033583;28;51180;-54
2023/06/19 09:18:04;;;;;;;;;17.00;16.33;;;;;;;;5026280;28;51266;-54
2023/06/19 09:20:30;;;;;;;;;13.00;13.00;;;;;;;;5027709;28;51172;-53
2023/06/19 09:22:56;;;;;;;;;13.33;12.33;;;;;;;;5014612;28;52830;-56
2023/06/19 09:25:23;;;;;;;;;12.33;11.33;;;;;;;;5027820;28;51246;-55
2023/06/19 09:27:48;;;;;;;;;12.67;12.67;;;;;;;;5019875;28;51108;-55
2023/06/19 09:30:15;;;;;;;;;31.50;30.00;;;;;;;;5027192;28;50977;-55
2023/06/19 09:32:40;;;;;;;;;18.00;17.00;;;;;;;;5013664;28;52028;-55
2023/06/19 09:35:05;;;;;;;;;13.33;13.33;;;;;;;;5016278;28;51231;-55
2023/06/19 09:37:31;;;;;;;;;11.67;11.00;;;;;;;;5033079;28;51094;-55
2023/06/19 09:39:57;;;;;;;;;11.33;11.33;;;;;;;;5019600;28;51019;-53
2023/06/19 09:42:34;;;;;;;;;13.00;12.00;;;;;;;;5027163;28;52003;-53
2023/06/19 09:45:04;;;;;;;;;10.67;10.00;;;;;;;;5031387;28;51277;-54
2023/06/19 09:47:31;;;;;;;;;7.00;7.00;;;;;;;;5026389;28;51124;-55
2023/06/19 09:49:56;;;;;;;;;8.00;8.00;;;;;;;;5027357;28;51100;-54
2023/06/19 09:52:23;;;;;;;;;7.00;6.67;;;;;;;;5021006;28;51653;-54
2023/06/19 09:54:51;;;;;;;;;10.00;10.00;;;;;;;;5014772;28;51080;-54
2023/06/19 09:57:18;;;;;;;;;11.33;9.67;;;;;;;;5034802;28;50923;-53
2023/06/19 09:59:43;;;;;;;;;11.00;11.00;;;;;;;;5033584;28;51318;-53
2023/06/19 10:02:10;;;;;;;;;11.00;11.00;;;;;;;;5037143;28;51989;-53
2023/06/19 10:05:04;;;;;;;;;14.00;14.00;;;;;;;;5022848;28;51025;-55
2023/06/19 10:07:33;;;;;;;;;9.00;9.00;;;;;;;;5009048;28;51099;-55
2023/06/19 10:10:00;;;;;;;;;9.33;9.33;;;;;;;;5019913;28;51192;-54
2023/06/19 10:12:38;;;;;;;;;12.00;11.00;;;;;;;;5045215;28;51797;-57
2023/06/19 10:15:08;;;;;;;;;8.67;8.67;;;;;;;;5031125;28;51091;-54
2023/06/19 10:17:33;;;;;;;;;10.33;10.33;;;;;;;;5021907;28;51061;-54
2023/06/19 10:19:59;;;;;;;;;11.00;11.00;;;;;;;;5032743;28;51308;-54
2023/06/19 10:22:29;;;;;;;;;13.00;12.00;;;;;;;;5029123;28;52165;-54
2023/06/19 10:24:54;;;;;;;;;11.00;11.00;;;;;;;;5021073;28;51068;-54
2023/06/19 10:27:21;;;;;;;;;13.00;11.00;;;;;;;;5036291;28;51016;-54
2023/06/19 10:29:51;;;;;;;;;11.67;11.67;;;;;;;;5032657;28;51077;-54
2023/06/19 10:32:16;;;;;;;;;10.33;10.33;;;;;;;;5023423;28;51130;-54
2023/06/19 10:34:45;;;;;;;;;11.67;11.67;;;;;;;;5034862;28;51424;-53
2023/06/19 10:37:11;;;;;;;;;9.67;9.00;;;;;;;;5039819;28;51124;-53
2023/06/19 10:39:36;;;;;;;;;11.67;11.00;;;;;;;;5026410;28;51041;-55
2023/06/19 10:42:04;;;;;;;;;11.33;11.00;;;;;;;;5025763;28;51042;-55
2023/06/19 10:44:30;;;;;;;;;17.00;16.33;;;;;;;;5046007;28;51095;-53
2023/06/19 10:46:56;;;;;;;;;9.00;9.00;;;;;;;;5032206;28;50928;-57
2023/06/19 10:49:21;;;;;;;;;11.33;11.00;;;;;;;;5027106;28;51279;-54
2023/06/19 10:51:48;;;;;;;;;13.00;13.00;;;;;;;;5017036;28;52815;-55
2023/06/19 10:54:13;;;;;;;;;11.00;11.00;;;;;;;;5041927;28;51450;-55
2023/06/19 10:56:38;;;;;;;;;12.67;12.67;;;;;;;;5027850;28;51183;-54
2023/06/19 10:59:11;;;;;;;;;10.33;10.33;;;;;;;;5033674;28;51869;-56
2023/06/19 11:01:38;;;;;;;;;18.00;18.00;;;;;;;;5037259;28;51702;-54
2023/06/19 11:04:04;;;;;;;;;12.33;11.67;;;;;;;;5038532;28;51036;-53
2023/06/19 11:06:30;;;;;;;;;8.33;8.33;;;;;;;;5023075;28;51243;-55
2023/06/19 11:08:56;;;;;;;;;11.00;11.00;;;;;;;;5032669;28;51166;-54
2023/06/19 11:11:21;;;;;;;;;11.33;10.33;;;;;;;;5035696;28;51238;-54
2023/06/19 11:13:46;;;;;;;;;12.33;11.33;;;;;;;;5031485;28;51116;-54
2023/06/19 11:16:14;;;;;;;;;11.00;10.67;;;;;;;;5025320;28;51164;-55
2023/06/19 11:18:39;;;;;;;;;9.33;9.33;;;;;;;;5022970;28;51077;-55
2023/06/19 11:21:04;;;;;;;;;9.67;9.00;;;;;;;;5034941;28;52772;-54
2023/06/19 11:23:30;;;;;;;;;7.67;7.67;;;;;;;;5024505;28;50909;-53
2023/06/19 11:26:02;;;;;;;;;11.67;10.33;;;;;;;;5026127;28;50974;-54
2023/06/19 11:28:29;;;;;;;;;9.00;9.00;;;;;;;;5031532;28;50962;-55
2023/06/19 11:30:58;;;;;;;;;11.00;10.33;;;;;;;;5030553;28;52177;-55
2023/06/19 11:33:23;;;;;;;;;12.00;12.00;;;;;;;;5027444;28;51088;-54
2023/06/19 11:35:49;;;;;;;;;9.00;9.00;;;;;;;;5044749;28;51668;-55
2023/06/19 11:38:21;;;;;;;;;12.00;12.00;;;;;;;;5039628;28;51057;-55
2023/06/19 11:40:47;;;;;;;;;12.33;12.00;;;;;;;;5020861;28;52776;-55
2023/06/19 11:43:12;;;;;;;;;11.67;11.67;;;;;;;;5024153;28;50867;-54
2023/06/19 11:45:51;;;;;;;;;17.00;14.67;;;;;;;;5037598;28;51057;-57
2023/06/19 11:48:23;;;;;;;;;10.00;9.33;;;;;;;;5019043;28;51168;-55
2023/06/19 11:50:48;;;;;;;;;12.67;12.67;;;;;;;;5025298;28;51032;-55
2023/06/19 11:53:13;;;;;;;;;13.33;10.67;;;;;;;;5035730;28;51057;-56
2023/06/19 11:55:38;;;;;;;;;12.67;11.33;;;;;;;;5033095;28;51060;-55
2023/06/19 11:58:04;;;;;;;;;11.33;10.00;;;;;;;;5033441;28;51068;-55
2023/06/19 12:00:29;;;;;;;;;9.67;9.67;;;;;;;;5033222;28;51844;-54
2023/06/19 12:02:56;;;;;;;;;11.33;11.00;;;;;;;;5033150;28;50993;-54
2023/06/19 12:05:22;;;;;;;;;9.33;9.33;;;;;;;;5031527;28;51181;-54
2023/06/19 12:07:47;;;;;;;;;10.33;10.00;;;;;;;;5033481;28;51095;-55
2023/06/19 12:10:12;;;;;;;;;11.33;10.67;;;;;;;;5015999;28;51840;-55
2023/06/19 12:12:38;;;;;;;;;12.33;12.00;;;;;;;;5020691;28;50964;-55
2023/06/19 12:15:05;;;;;;;;;23.00;19.25;;;;;;;;5013333;28;51100;-56
2023/06/19 12:17:30;;;;;;;;;11.33;11.33;;;;;;;;5013524;28;51059;-56
2023/06/19 12:19:55;;;;;;;;;12.00;12.00;;;;;;;;5012910;28;52167;-55
2023/06/19 12:22:20;;;;;;;;;11.00;10.33;;;;;;;;5017581;28;50937;-57
2023/06/19 12:24:46;;;;;;;;;10.67;10.67;;;;;;;;5030272;28;50861;-55
2023/06/19 12:27:11;;;;;;;;;10.33;10.33;;;;;;;;5021273;28;51251;-54
2023/06/19 12:29:36;;;;;;;;;10.00;9.33;;;;;;;;5030056;28;51653;-55
2023/06/19 12:32:05;;;;;;;;;11.00;10.33;;;;;;;;5032922;28;50926;-55
2023/06/19 12:34:31;;;;;;;;;8.00;7.00;;;;;;;;5029208;28;51123;-54
2023/06/19 12:36:59;;;;;;;;;11.00;10.67;;;;;;;;5030169;28;51130;-56
2023/06/19 12:39:25;;;;;;;;;13.00;13.00;;;;;;;;5013835;28;51937;-55
2023/06/19 12:41:51;;;;;;;;;13.67;12.00;;;;;;;;5013257;28;51039;-56
2023/06/19 12:44:17;;;;;;;;;14.33;13.00;;;;;;;;5012914;28;51276;-55
2023/06/19 12:46:42;;;;;;;;;14.33;14.00;;;;;;;;5019766;28;50930;-54
2023/06/19 12:49:07;;;;;;;;;12.33;12.00;;;;;;;;5032391;28;51786;-56
2023/06/19 12:51:33;;;;;;;;;13.00;12.00;;;;;;;;5032749;28;51123;-55
2023/06/19 12:53:58;;;;;;;;;12.67;11.67;;;;;;;;5032615;28;50992;-56
2023/06/19 12:56:23;;;;;;;;;13.67;13.33;;;;;;;;5030861;28;50993;-57
2023/06/19 12:58:49;;;;;;;;;10.33;10.33;;;;;;;;5012581;28;51135;-55
2023/06/19 13:01:14;;;;;;;;;11.33;11.33;;;;;;;;5012648;28;51374;-55
2023/06/19 13:03:39;;;;;;;;;10.00;10.00;;;;;;;;5012645;28;51037;-54
2023/06/19 13:06:04;;;;;;;;;11.00;11.00;;;;;;;;5012612;28;51257;-54
2023/06/19 13:08:29;;;;;;;;;11.67;11.00;;;;;;;;5018417;28;52022;-54
2023/06/19 13:10:55;;;;;;;;;11.00;11.00;;;;;;;;5023881;28;50953;-54
2023/06/19 13:13:20;;;;;;;;;12.67;12.67;;;;;;;;5016701;28;50922;-55
2023/06/19 13:15:46;;;;;;;;;10.67;10.67;;;;;;;;5013027;28;50955;-54
2023/06/19 13:18:11;;;;;;;;;12.00;12.00;;;;;;;;5012033;28;52779;-55
2023/06/19 13:20:36;;;;;;;;;11.00;11.00;;;;;;;;5012629;28;50915;-54
2023/06/19 13:23:02;;;;;;;;;10.33;10.00;;;;;;;;5012309;28;51010;-56
2023/06/19 13:25:27;;;;;;;;;11.33;10.33;;;;;;;;5019599;28;50999;-55
2023/06/19 13:27:52;;;;;;;;;10.33;10.33;;;;;;;;5012041;28;51269;-55
2023/06/19 13:30:17;;;;;;;;;13.00;12.67;;;;;;;;5012231;28;51055;-55
2023/06/19 13:32:42;;;;;;;;;13.33;13.33;;;;;;;;5012340;28;50959;-54
2023/06/19 13:35:08;;;;;;;;;10.00;10.00;;;;;;;;5023265;28;51260;-54
2023/06/19 13:37:38;;;;;;;;;11.33;11.33;;;;;;;;5014553;28;51881;-54
2023/06/19 13:40:04;;;;;;;;;13.33;12.33;;;;;;;;5021594;28;51361;-54
2023/06/19 13:42:30;;;;;;;;;13.25;13.00;;;;;;;;5014104;28;51066;-54
2023/06/19 13:44:55;;;;;;;;;15.00;14.00;;;;;;;;5013053;28;51294;-54
2023/06/19 13:47:21;;;;;;;;;12.67;11.67;;;;;;;;5015464;28;51893;-55
2023/06/19 13:49:46;;;;;;;;;15.00;15.00;;;;;;;;5014360;28;51224;-54
2023/06/19 13:52:11;;;;;;;;;16.00;15.00;;;;;;;;5015498;28;51057;-55
2023/06/19 13:54:37;;;;;;;;;12.33;12.33;;;;;;;;5015957;28;51042;-55
2023/06/19 13:57:03;;;;;;;;;14.00;14.00;;;;;;;;5015084;28;51168;-55
2023/06/19 13:59:28;;;;;;;;;19.00;16.67;;;;;;;;5015392;28;51010;-55
2023/06/19 14:01:54;;;;;;;;;16.00;15.33;;;;;;;;5014857;28;50995;-55
2023/06/19 14:04:19;;;;;;;;;14.67;14.00;;;;;;;;5015365;28;51355;-55
2023/06/19 14:06:44;;;;;;;;;16.67;16.33;;;;;;;;5019624;28;52145;-54
2023/06/19 14:09:10;;;;;;;;;18.50;18.50;;;;;;;;5034342;28;50925;-55
2023/06/19 14:11:35;;;;;;;;;15.33;15.33;;;;;;;;5018166;28;50913;-54
2023/06/19 14:14:00;;;;;;;;;14.00;13.00;;;;;;;;5015582;28;51214;-55